Time;durP1;ratioP1;P1;durP2;ratioP2;P2;SDS_P1;SDS_P2;PMS_P1;PMS_P2;Temp;Humidity;BMP_temperature;BMP_pressure;BME280_temperature;BME280_humidity;BME280_pressure;Samples;Min_cycle;Max_cycle;Signal;HPM_P1;HPM_P2
2021/08/07 00:00:14;;;;;;;;;1.00;1.00;;;;;26.76;43.36;100310.81;5032509;28;45516;-66
2021/08/07 00:02:39;;;;;;;;;2.00;0.00;;;;;26.74;43.45;100308.38;5032494;28;47223;-66
2021/08/07 00:05:06;;;;;;;;;1.00;1.00;;;;;26.73;43.01;100304.06;5032701;28;45490;-66
2021/08/07 00:07:33;;;;;;;;;0.33;0.33;;;;;26.76;43.32;100305.47;5033329;28;45377;-66
2021/08/07 00:09:58;;;;;;;;;0.00;0.00;;;;;26.74;42.98;100297.72;5034167;28;45384;-66
2021/08/07 00:12:24;;;;;;;;;1.00;1.00;;;;;26.77;43.63;100309.78;5032346;28;45485;-66
2021/08/07 00:14:49;;;;;;;;;1.00;0.00;;;;;26.77;43.39;100309.78;5032635;28;45305;-66
2021/08/07 00:17:14;;;;;;;;;1.00;1.00;;;;;26.77;43.28;100308.97;5030997;28;45441;-66
2021/08/07 00:19:40;;;;;;;;;2.00;1.00;;;;;26.77;43.10;100308.97;5033021;28;45234;-66
2021/08/07 00:22:05;;;;;;;;;0.67;0.00;;;;;26.77;43.36;100308.97;5033201;28;45352;-66
2021/08/07 00:24:30;;;;;;;;;0.00;0.00;;;;;26.76;43.46;100294.81;5034902;28;45535;-66
2021/08/07 00:26:56;;;;;;;;;0.33;0.33;;;;;26.76;43.21;100299.31;5035957;28;45860;-66
2021/08/07 00:29:21;;;;;;;;;1.00;1.00;;;;;26.74;43.30;100299.56;5035801;28;45521;-66
2021/08/07 00:31:47;;;;;;;;;0.00;0.00;;;;;26.76;43.46;100292.13;5035895;28;46055;-66
2021/08/07 00:34:12;;;;;;;;;1.00;1.00;;;;;26.76;42.98;100296.66;5037901;28;45268;-66
2021/08/07 00:36:38;;;;;;;;;1.00;1.00;;;;;26.75;43.00;100290.53;5035387;28;45778;-66
2021/08/07 00:39:03;;;;;;;;;1.00;1.00;;;;;26.76;43.20;100289.47;5035674;28;45564;-66
2021/08/07 00:41:29;;;;;;;;;0.00;0.00;;;;;26.77;43.78;100287.63;5035336;28;45282;-66
2021/08/07 00:43:54;;;;;;;;;1.33;0.00;;;;;26.77;43.03;100285.78;5035828;28;45227;-66
2021/08/07 00:46:19;;;;;;;;;0.67;0.67;;;;;26.74;43.43;100280.88;5038044;28;45452;-67
2021/08/07 00:48:45;;;;;;;;;1.00;1.00;;;;;26.77;43.01;100276.94;5034308;28;45527;-66
2021/08/07 00:51:11;;;;;;;;;0.00;0.00;;;;;26.76;43.27;100278.78;5034616;28;45614;-66
2021/08/07 00:53:36;;;;;;;;;1.67;1.67;;;;;26.78;43.52;100282.03;5035248;28;45417;-66
2021/08/07 00:56:02;;;;;;;;;0.67;0.67;;;;;26.78;43.42;100283.91;5033968;28;45386;-66
2021/08/07 00:58:27;;;;;;;;;0.67;0.00;;;;;26.74;43.26;100273.69;5036527;28;45436;-67
2021/08/07 01:00:53;;;;;;;;;0.67;0.33;;;;;26.76;43.03;100286.81;5034690;28;45991;-66
2021/08/07 01:03:33;;;;;;;;;0.00;0.00;;;;;26.77;43.49;100279.63;5035396;28;45471;-66
2021/08/07 01:06:14;;;;;;;;;0.00;0.00;;;;;26.76;43.20;100286.81;5034915;28;45329;-66
2021/08/07 01:08:57;;;;;;;;;1.00;0.00;;;;;26.77;43.47;100282.28;5034996;28;45564;-66
2021/08/07 01:11:31;;;;;;;;;0.33;0.33;;;;;26.77;43.05;100274.28;5034989;28;46651;-67
2021/08/07 01:14:04;;;;;;;;;1.00;1.00;;;;;26.76;43.29;100277.97;5020308;28;45316;-66
2021/08/07 01:16:34;;;;;;;;;0.00;0.00;;;;;26.74;43.00;100263.03;5035958;28;45464;-66
2021/08/07 01:19:01;;;;;;;;;0.00;0.00;;;;;26.73;43.12;100264.06;5036958;28;45511;-66
2021/08/07 01:21:33;;;;;;;;;0.00;0.00;;;;;26.63;43.39;100245.91;5034521;28;47291;-67
2021/08/07 01:24:11;;;;;;;;;0.00;0.00;;;;;26.75;43.40;100263.84;5034795;28;45485;-66
2021/08/07 01:27:12;;;;;;;;;0.00;0.00;;;;;26.74;43.35;100259.53;5034983;28;45408;-66
2021/08/07 01:29:37;;;;;;;;;0.67;0.67;;;;;26.71;43.03;100254.66;4991458;28;45593;-66
2021/08/07 01:32:03;;;;;;;;;1.00;1.00;;;;;26.73;43.30;100260.56;4992745;28;46062;-66
2021/08/07 01:34:29;;;;;;;;;1.00;1.00;;;;;26.74;43.01;100256.88;4994119;28;45461;-66
2021/08/07 01:36:55;;;;;;;;;0.33;0.33;;;;;26.70;43.00;100253.81;4993659;28;45722;-66
2021/08/07 01:39:20;;;;;;;;;0.75;0.75;;;;;26.74;43.53;100256.88;4992889;28;45467;-66
2021/08/07 01:41:45;;;;;;;;;0.00;0.00;;;;;26.72;42.93;100245.59;4992775;28;46173;-66
2021/08/07 01:44:11;;;;;;;;;1.00;1.00;;;;;26.74;43.33;100252.34;4992890;28;47484;-66
2021/08/07 01:46:47;;;;;;;;;1.00;1.00;;;;;26.74;42.84;100247.00;4992878;28;45339;-66
2021/08/07 01:49:15;;;;;;;;;0.00;0.00;;;;;26.76;43.32;100235.28;4994379;28;45348;-66
2021/08/07 01:51:51;;;;;;;;;0.00;0.00;;;;;26.74;43.02;100235.53;4992547;28;46198;-66
2021/08/07 01:54:23;;;;;;;;;1.00;1.00;;;;;26.73;42.71;100233.88;4992413;28;45399;-67
2021/08/07 01:56:52;;;;;;;;;1.00;0.00;;;;;26.74;43.40;100228.34;4992646;28;45558;-66
2021/08/07 01:59:21;;;;;;;;;0.67;0.00;;;;;26.74;42.86;100225.66;4991107;28;45547;-66
2021/08/07 02:01:48;;;;;;;;;0.00;0.00;;;;;26.76;43.15;100221.94;4992628;28;46470;-66
2021/08/07 02:04:15;;;;;;;;;2.00;1.00;;;;;26.73;43.36;100215.19;4994146;28;45446;-66
2021/08/07 02:06:42;;;;;;;;;2.00;1.00;;;;;26.75;43.25;100221.16;5016746;28;45293;-66
2021/08/07 02:09:09;;;;;;;;;0.00;0.00;;;;;26.75;43.01;100215.81;5034210;28;45373;-66
2021/08/07 02:11:35;;;;;;;;;1.00;1.00;;;;;26.74;43.19;100220.31;5034008;28;45410;-66
2021/08/07 02:14:01;;;;;;;;;1.00;1.00;;;;;26.74;43.14;100212.31;5032624;28;45397;-66
2021/08/07 02:16:27;;;;;;;;;0.33;0.33;;;;;26.74;43.10;100214.16;5035439;28;45285;-67
2021/08/07 02:18:53;;;;;;;;;0.00;0.00;;;;;26.73;43.22;100218.69;5033314;28;45451;-66
2021/08/07 02:21:19;;;;;;;;;0.00;0.00;;;;;26.73;43.24;100217.88;5033304;28;45384;-66
2021/08/07 02:23:48;;;;;;;;;1.00;1.00;;;;;26.73;43.08;100213.34;5033938;28;45388;-66
2021/08/07 02:26:15;;;;;;;;;1.00;0.00;;;;;26.74;43.10;100216.84;5033403;28;45421;-66
2021/08/07 02:28:40;;;;;;;;;0.00;0.00;;;;;26.73;43.23;100210.69;5034039;28;45477;-66
2021/08/07 02:31:08;;;;;;;;;1.00;1.00;;;;;26.73;43.08;100213.34;5035743;28;46247;-66
2021/08/07 02:33:35;;;;;;;;;1.33;0.33;;;;;26.72;43.29;100217.06;5033527;28;45598;-66
2021/08/07 02:36:01;;;;;;;;;1.00;1.00;;;;;26.72;42.91;100214.41;5033698;28;45516;-66
2021/08/07 02:38:28;;;;;;;;;1.00;1.00;;;;;26.72;42.95;100206.41;5033826;28;45430;-66
2021/08/07 02:40:58;;;;;;;;;1.00;1.00;;;;;26.72;42.79;100209.06;5033805;28;46183;-67
2021/08/07 02:43:24;;;;;;;;;2.00;0.00;;;;;26.72;43.04;100210.91;5034955;28;45432;-66
2021/08/07 02:45:50;;;;;;;;;0.00;0.00;;;;;26.72;43.01;100213.59;5034072;28;45404;-66
2021/08/07 02:48:16;;;;;;;;;1.33;1.00;;;;;26.71;42.97;100201.28;5033052;28;45623;-66
2021/08/07 02:50:43;;;;;;;;;0.00;0.00;;;;;26.72;42.89;100200.25;5033541;28;45491;-66
2021/08/07 02:53:11;;;;;;;;;1.67;0.67;;;;;26.71;43.29;100193.28;5032184;28;45337;-66
2021/08/07 02:55:36;;;;;;;;;0.00;0.00;;;;;26.70;43.05;100192.44;5034233;28;45670;-66
2021/08/07 02:58:03;;;;;;;;;1.00;1.00;;;;;26.70;43.17;100189.78;5033690;28;45349;-66
2021/08/07 03:00:28;;;;;;;;;0.00;0.00;;;;;26.71;42.99;100193.28;5033073;28;45397;-66
2021/08/07 03:02:54;;;;;;;;;0.50;0.50;;;;;26.70;42.90;100191.66;5033007;28;45555;-66
2021/08/07 03:05:20;;;;;;;;;0.00;0.00;;;;;26.71;42.73;100178.09;5033744;28;45212;-66
2021/08/07 03:07:47;;;;;;;;;0.00;0.00;;;;;26.70;42.90;100179.13;5033529;28;45662;-66
2021/08/07 03:10:13;;;;;;;;;0.67;0.67;;;;;26.70;42.93;100176.44;5035373;28;46145;-67
2021/08/07 03:12:38;;;;;;;;;0.33;0.33;;;;;26.71;42.89;100178.09;5033122;28;45400;-66
2021/08/07 03:15:05;;;;;;;;;1.00;1.00;;;;;26.70;42.92;100175.66;5033433;28;45346;-66
2021/08/07 03:17:31;;;;;;;;;0.67;0.00;;;;;26.70;42.89;100176.44;5032860;28;45386;-66
2021/08/07 03:19:56;;;;;;;;;0.33;0.33;;;;;26.70;42.87;100172.97;5033274;28;46072;-66
2021/08/07 03:22:21;;;;;;;;;0.00;0.00;;;;;26.71;43.15;100171.94;5035027;28;45310;-66
2021/08/07 03:24:47;;;;;;;;;0.00;0.00;;;;;26.70;42.81;100173.78;5033744;28;45552;-66
2021/08/07 03:27:13;;;;;;;;;0.00;0.00;;;;;26.70;42.78;100170.31;5033071;28;45488;-66
2021/08/07 03:29:38;;;;;;;;;1.33;1.33;;;;;26.70;42.80;100160.44;5033025;28;46867;-66
2021/08/07 03:32:04;;;;;;;;;1.50;0.00;;;;;26.67;42.75;100154.75;5031233;28;45350;-66
2021/08/07 03:34:29;;;;;;;;;0.00;0.00;;;;;26.69;42.95;100155.34;5034170;28;45330;-67
2021/08/07 03:36:55;;;;;;;;;0.67;0.67;;;;;26.69;42.67;100147.34;5032783;28;45406;-66
2021/08/07 03:39:20;;;;;;;;;0.00;0.00;;;;;26.66;42.62;100147.78;5032086;28;47418;-66
2021/08/07 03:41:47;;;;;;;;;0.00;0.00;;;;;26.66;42.49;100148.59;5032952;28;45417;-66
2021/08/07 03:44:13;;;;;;;;;1.00;1.00;;;;;26.65;43.06;100144.31;5033190;28;45364;-66
2021/08/07 03:46:38;;;;;;;;;0.00;0.00;;;;;26.69;42.53;100139.31;5032684;28;45374;-66
2021/08/07 03:49:03;;;;;;;;;0.00;0.00;;;;;26.68;42.82;100145.69;5034954;28;46011;-66
2021/08/07 03:51:29;;;;;;;;;0.33;0.33;;;;;26.68;42.82;100143.84;5032945;28;45370;-66
2021/08/07 03:53:54;;;;;;;;;0.00;0.00;;;;;26.67;42.83;100133.41;5028754;28;45360;-67
2021/08/07 03:56:19;;;;;;;;;1.00;1.00;;;;;26.68;42.41;100137.69;5032947;28;45357;-66
2021/08/07 03:58:45;;;;;;;;;1.00;1.00;;;;;26.67;42.81;100138.75;5034487;28;46947;-66
2021/08/07 04:01:10;;;;;;;;;1.00;1.00;;;;;26.67;42.69;100136.09;5037980;28;45310;-66
2021/08/07 04:03:36;;;;;;;;;1.00;1.00;;;;;26.64;42.69;100124.03;5036325;28;46157;-66
2021/08/07 04:06:01;;;;;;;;;0.00;0.00;;;;;26.68;42.86;100127.03;5036170;28;45524;-66
2021/08/07 04:08:26;;;;;;;;;0.33;0.33;;;;;26.68;42.72;100116.34;5036011;28;46763;-67
2021/08/07 04:10:52;;;;;;;;;1.00;0.00;;;;;26.65;42.58;100109.63;5034701;28;45334;-66
2021/08/07 04:13:17;;;;;;;;;0.00;0.00;;;;;26.66;42.98;100107.75;5038483;28;45405;-66
2021/08/07 04:15:42;;;;;;;;;0.00;0.00;;;;;26.66;42.79;100105.09;5034539;28;45503;-67
2021/08/07 04:18:08;;;;;;;;;0.00;0.00;;;;;26.66;42.85;100105.09;5035561;28;46018;-66
2021/08/07 04:20:33;;;;;;;;;0.75;0.75;;;;;26.67;42.97;100102.22;5036077;28;45373;-66
2021/08/07 04:22:59;;;;;;;;;0.00;0.00;;;;;26.67;42.60;100102.22;5036343;28;47779;-67
2021/08/07 04:25:25;;;;;;;;;1.00;0.00;;;;;26.67;42.69;100099.56;5037427;28;45505;-66
2021/08/07 04:27:50;;;;;;;;;0.00;0.00;;;;;26.68;42.58;100097.66;5036453;28;46387;-66
2021/08/07 04:30:16;;;;;;;;;0.00;0.00;;;;;26.69;42.71;100093.97;5035288;28;45485;-66
2021/08/07 04:32:41;;;;;;;;;1.00;1.00;;;;;26.65;42.47;100088.28;5035902;28;45477;-66
2021/08/07 04:35:08;;;;;;;;;1.00;1.00;;;;;26.67;42.38;100088.06;5036142;28;45351;-66
2021/08/07 04:37:44;;;;;;;;;0.00;0.00;;;;;26.69;42.59;100088.63;5035998;28;45993;-66
2021/08/07 04:40:10;;;;;;;;;0.00;0.00;;;;;26.69;42.65;100088.63;5036671;28;45424;-66
2021/08/07 04:42:35;;;;;;;;;0.00;0.00;;;;;26.66;42.59;100083.75;5035356;28;45347;-66
2021/08/07 04:45:00;;;;;;;;;0.00;0.00;;;;;26.66;42.48;100084.56;5035165;28;48888;-66
2021/08/07 04:47:25;;;;;;;;;0.00;0.00;;;;;26.68;42.68;100085.16;5035507;28;45384;-66
2021/08/07 04:49:51;;;;;;;;;0.00;0.00;;;;;26.68;42.81;100087.81;5034108;28;48007;-66
2021/08/07 04:52:16;;;;;;;;;0.00;0.00;;;;;26.67;42.56;100080.06;5037591;28;45424;-66
2021/08/07 04:54:41;;;;;;;;;0.00;0.00;;;;;26.67;42.70;100082.72;5033991;28;45551;-66
2021/08/07 04:57:07;;;;;;;;;0.00;0.00;;;;;26.65;42.19;100082.16;5035132;28;46180;-66
2021/08/07 04:59:32;;;;;;;;;0.67;0.00;;;;;26.59;42.28;100073.19;5034702;28;45496;-66
2021/08/07 05:01:57;;;;;;;;;1.33;1.00;;;;;26.65;42.70;100092.81;5035430;28;45227;-66
2021/08/07 05:04:23;;;;;;;;;0.00;0.00;;;;;26.65;42.85;100090.16;5036089;28;45307;-66
2021/08/07 05:06:48;;;;;;;;;0.00;0.00;;;;;26.65;42.48;100090.16;5035382;28;49181;-66
2021/08/07 05:09:14;;;;;;;;;0.00;0.00;;;;;26.66;42.56;100087.25;5034885;28;45540;-66
2021/08/07 05:11:39;;;;;;;;;2.00;0.33;;;;;26.66;42.63;100091.75;5035284;28;45635;-66
2021/08/07 05:14:04;;;;;;;;;2.00;0.00;;;;;26.65;42.39;100098.16;5035156;28;45433;-66
2021/08/07 05:16:30;;;;;;;;;0.33;0.33;;;;;26.63;42.50;100099.19;5036019;28;45463;-66
2021/08/07 05:18:55;;;;;;;;;0.00;0.00;;;;;26.61;42.53;100090.59;5036122;28;45431;-66
2021/08/07 05:21:20;;;;;;;;;0.00;0.00;;;;;26.62;42.34;100092.22;5035218;28;45334;-66
2021/08/07 05:23:46;;;;;;;;;0.00;0.00;;;;;26.60;42.78;100077.47;5035125;28;45232;-66
2021/08/07 05:26:11;;;;;;;;;0.33;0.33;;;;;26.53;42.64;100066.94;5034896;28;47333;-66
2021/08/07 05:28:36;;;;;;;;;0.00;0.00;;;;;26.60;42.67;100074.81;5034928;28;45358;-66
2021/08/07 05:31:02;;;;;;;;;1.00;0.00;;;;;26.61;42.53;100061.25;5035032;28;45445;-66
2021/08/07 05:33:27;;;;;;;;;0.00;0.00;;;;;26.62;42.63;100059.41;5033573;28;45563;-66
2021/08/07 05:35:52;;;;;;;;;2.33;0.00;;;;;26.57;42.53;100054.75;5034597;28;46040;-66
2021/08/07 05:38:18;;;;;;;;;0.00;0.00;;;;;26.63;42.62;100058.34;5034765;28;45310;-66
2021/08/07 05:40:43;;;;;;;;;0.33;0.33;;;;;26.63;42.49;100064.50;5034836;28;45333;-66
2021/08/07 05:43:09;;;;;;;;;0.00;0.00;;;;;26.63;42.53;100053.00;5036481;28;45346;-67
2021/08/07 05:45:34;;;;;;;;;0.00;0.00;;;;;26.64;42.54;100054.66;5034565;28;46122;-66
2021/08/07 05:48:00;;;;;;;;;1.00;0.00;;;;;26.63;42.35;100053.84;5034510;28;45418;-66
2021/08/07 05:50:25;;;;;;;;;2.00;1.00;;;;;26.62;42.55;100056.75;5034865;28;45526;-66
2021/08/07 05:52:51;;;;;;;;;0.00;0.00;;;;;26.62;42.53;100051.41;5034861;28;45349;-66
2021/08/07 05:55:16;;;;;;;;;0.67;0.67;;;;;26.58;42.71;100040.38;5036467;28;45257;-66
2021/08/07 05:57:41;;;;;;;;;1.00;0.33;;;;;26.61;42.20;100050.59;5033947;28;45381;-66
2021/08/07 06:00:07;;;;;;;;;0.00;0.00;;;;;26.61;42.18;100041.78;5034372;28;45311;-66
2021/08/07 06:02:34;;;;;;;;;1.00;0.67;;;;;26.61;42.63;100042.59;5034450;28;45355;-67
2021/08/07 06:04:59;;;;;;;;;0.00;0.00;;;;;26.60;42.55;100040.13;5034394;28;47229;-66
2021/08/07 06:07:25;;;;;;;;;0.33;0.33;;;;;26.61;42.58;100041.78;5035479;28;45299;-66
2021/08/07 06:09:50;;;;;;;;;0.00;0.00;;;;;26.60;42.74;100037.47;5033812;28;45514;-67
2021/08/07 06:12:15;;;;;;;;;0.00;0.00;;;;;26.61;42.27;100037.25;5032585;28;45388;-66
2021/08/07 06:14:41;;;;;;;;;2.00;0.00;;;;;26.60;42.37;100038.28;5034092;28;47285;-67
2021/08/07 06:17:07;;;;;;;;;0.00;0.00;;;;;26.58;42.43;100029.69;5034093;28;45602;-66
2021/08/07 06:19:32;;;;;;;;;0.00;0.00;;;;;26.61;42.40;100039.91;5035044;28;45356;-66
2021/08/07 06:21:57;;;;;;;;;0.00;0.00;;;;;26.61;42.13;100026.56;5034849;28;45355;-66
2021/08/07 06:24:23;;;;;;;;;0.00;0.00;;;;;26.62;42.33;100022.84;5033918;28;45385;-66
2021/08/07 06:26:48;;;;;;;;;0.00;0.00;;;;;26.59;42.21;100019.84;5033522;28;45408;-66
2021/08/07 06:29:14;;;;;;;;;1.00;1.00;;;;;26.63;42.24;100023.66;5034266;28;45869;-67
2021/08/07 06:31:39;;;;;;;;;0.00;0.00;;;;;26.63;42.28;100013.81;5034060;28;45349;-66
2021/08/07 06:34:04;;;;;;;;;1.00;1.00;;;;;26.62;42.37;100014.06;5035921;28;47081;-66
2021/08/07 06:36:32;;;;;;;;;1.00;0.00;;;;;26.62;42.40;100012.19;5032565;28;45408;-66
2021/08/07 06:38:57;;;;;;;;;0.00;0.00;;;;;26.62;42.41;100008.72;5034067;28;45223;-66
2021/08/07 06:41:23;;;;;;;;;0.00;0.00;;;;;26.63;42.42;100005.81;5033604;28;45402;-66
2021/08/07 06:43:48;;;;;;;;;0.00;0.00;;;;;26.63;42.24;100007.66;5033738;28;46927;-66
2021/08/07 06:46:14;;;;;;;;;0.00;0.00;;;;;26.63;42.29;100002.31;5035843;28;45239;-66
2021/08/07 06:48:40;;;;;;;;;0.00;0.00;;;;;26.65;42.03;99996.78;5032178;28;45591;-66
2021/08/07 06:51:05;;;;;;;;;0.00;0.00;;;;;26.64;41.94;100009.31;5032226;28;45570;-66
2021/08/07 06:53:31;;;;;;;;;0.00;0.00;;;;;26.62;42.17;100009.50;5032668;28;45353;-66
2021/08/07 06:55:56;;;;;;;;;0.33;0.00;;;;;26.64;42.04;100009.31;5033291;28;45382;-66
2021/08/07 06:58:22;;;;;;;;;0.00;0.00;;;;;26.63;42.29;100024.50;5035573;28;45381;-67
2021/08/07 07:00:47;;;;;;;;;0.00;0.00;;;;;26.65;41.92;100015.44;5033712;28;45231;-66
2021/08/07 07:03:12;;;;;;;;;0.00;0.00;;;;;26.64;42.46;100022.63;5033425;28;45345;-67
2021/08/07 07:05:38;;;;;;;;;0.00;0.00;;;;;26.66;42.10;100017.06;5033339;28;45591;-66
2021/08/07 07:08:03;;;;;;;;;0.00;0.00;;;;;26.63;42.05;100016.47;5033545;28;45592;-67
2021/08/07 07:10:29;;;;;;;;;0.00;0.00;;;;;26.65;42.29;100016.25;5034256;28;45575;-67
2021/08/07 07:12:56;;;;;;;;;1.00;0.00;;;;;26.65;42.33;100012.78;5034464;28;46051;-66
2021/08/07 07:15:22;;;;;;;;;1.00;0.33;;;;;26.65;42.49;100010.13;5033176;28;45349;-66
2021/08/07 07:17:48;;;;;;;;;1.33;0.00;;;;;26.62;42.41;100008.72;5033076;28;45493;-66
2021/08/07 07:20:13;;;;;;;;;0.00;0.00;;;;;26.65;42.53;100007.44;5033270;28;45421;-67
2021/08/07 07:22:39;;;;;;;;;0.00;0.00;;;;;26.62;42.28;100006.84;5032878;28;46169;-66
2021/08/07 07:25:07;;;;;;;;;1.00;0.00;;;;;26.64;42.24;100017.31;5035309;28;45366;-67
2021/08/07 07:27:33;;;;;;;;;0.33;0.33;;;;;26.63;42.18;100019.16;5031603;28;45399;-66
2021/08/07 07:29:58;;;;;;;;;3.00;0.00;;;;;26.63;42.13;100023.66;5031669;28;45387;-66
2021/08/07 07:32:23;;;;;;;;;0.00;0.00;;;;;26.60;42.35;100011.59;5034471;28;45943;-66
2021/08/07 07:34:49;;;;;;;;;0.00;0.00;;;;;26.62;42.39;100020.19;5036642;28;45635;-66
2021/08/07 07:37:14;;;;;;;;;2.00;0.00;;;;;26.65;42.17;100023.47;5038354;28;45616;-66
2021/08/07 07:39:40;;;;;;;;;1.00;1.00;;;;;26.63;42.38;100003.16;5036735;28;45478;-66
2021/08/07 07:42:06;;;;;;;;;0.00;0.00;;;;;26.63;42.15;99967.66;5036594;28;47132;-66
2021/08/07 07:44:31;;;;;;;;;0.00;0.00;;;;;26.62;42.42;99972.16;5036452;28;45473;-66
2021/08/07 07:46:56;;;;;;;;;0.00;0.00;;;;;26.61;42.21;99977.75;5036780;28;45376;-66
2021/08/07 07:49:22;;;;;;;;;0.00;0.00;;;;;26.62;42.37;99979.38;5038444;28;45440;-66
2021/08/07 07:51:48;;;;;;;;;0.00;0.00;;;;;26.60;42.35;99981.44;5036537;28;45383;-66
2021/08/07 07:54:13;;;;;;;;;1.00;1.00;;;;;26.60;42.36;99984.94;5036210;28;45325;-66
2021/08/07 07:56:38;;;;;;;;;0.00;0.00;;;;;26.53;42.52;99960.22;5036266;28;45543;-67
2021/08/07 07:59:04;;;;;;;;;1.00;0.00;;;;;26.58;42.30;99968.34;5036678;28;45501;-66
2021/08/07 08:01:29;;;;;;;;;1.33;0.00;;;;;26.60;42.22;99968.94;5037124;28;46488;-66
2021/08/07 08:03:54;;;;;;;;;1.67;0.33;;;;;26.58;42.22;99955.00;5037180;28;45294;-66
2021/08/07 08:06:20;;;;;;;;;0.00;0.00;;;;;26.59;42.44;99956.66;5034252;28;45493;-66
2021/08/07 08:08:45;;;;;;;;;0.00;0.00;;;;;26.58;42.34;99952.34;5036224;28;45222;-66
2021/08/07 08:11:10;;;;;;;;;0.00;0.00;;;;;26.58;42.45;99952.34;5036357;28;46223;-66
2021/08/07 08:13:37;;;;;;;;;1.00;1.00;;;;;26.54;42.31;99942.38;5036309;28;45621;-66
2021/08/07 08:16:04;;;;;;;;;0.00;0.00;;;;;26.61;42.43;99951.06;5036152;28;45439;-66
2021/08/07 08:18:29;;;;;;;;;0.00;0.00;;;;;26.59;42.19;99942.50;5035837;28;45562;-66
2021/08/07 08:20:55;;;;;;;;;0.00;0.00;;;;;26.62;42.15;99939.38;5035543;28;46167;-66
2021/08/07 08:23:21;;;;;;;;;0.33;0.33;;;;;26.58;42.49;99927.53;5036045;28;45431;-66
2021/08/07 08:25:47;;;;;;;;;0.00;0.00;;;;;26.57;42.22;99929.38;5036281;28;45306;-66
2021/08/07 08:28:12;;;;;;;;;0.00;0.00;;;;;26.58;42.22;99939.00;5037841;28;45482;-66
2021/08/07 08:30:39;;;;;;;;;1.00;0.00;;;;;26.61;42.19;99949.22;5035691;28;46993;-66
2021/08/07 08:33:05;;;;;;;;;2.00;0.00;;;;;26.58;42.67;99938.19;5035786;28;45298;-66
2021/08/07 08:35:31;;;;;;;;;0.67;0.67;;;;;26.58;42.09;99940.84;5035354;28;45416;-66
2021/08/07 08:37:56;;;;;;;;;0.00;0.00;;;;;26.60;42.64;99944.09;5035755;28;45661;-66
2021/08/07 08:40:21;;;;;;;;;0.00;0.00;;;;;26.61;42.42;99940.41;5037853;28;47409;-66
2021/08/07 08:42:47;;;;;;;;;0.00;0.00;;;;;26.60;42.23;99936.09;5034325;28;45709;-66
2021/08/07 08:45:12;;;;;;;;;0.00;0.00;;;;;26.58;42.29;99930.19;5033354;28;45448;-67
2021/08/07 08:47:41;;;;;;;;;0.00;0.00;;;;;26.60;42.45;99934.25;5034281;28;45490;-66
2021/08/07 08:50:07;;;;;;;;;0.00;0.00;;;;;26.61;42.34;99933.22;5035137;28;46274;-67
2021/08/07 08:52:36;;;;;;;;;0.00;0.00;;;;;26.61;42.30;99930.53;5036214;28;45599;-66
2021/08/07 08:55:02;;;;;;;;;0.00;0.00;;;;;26.61;42.20;99924.38;5035442;28;45473;-66
2021/08/07 08:57:27;;;;;;;;;0.00;0.00;;;;;26.59;42.68;99919.31;5035122;28;45465;-66
2021/08/07 08:59:54;;;;;;;;;0.00;0.00;;;;;26.60;42.86;99912.09;5035098;28;45370;-66
2021/08/07 09:02:19;;;;;;;;;0.00;0.00;;;;;26.57;42.53;99908.03;5035494;28;45440;-66
2021/08/07 09:04:45;;;;;;;;;0.00;0.00;;;;;26.60;42.31;99922.75;5035082;28;45762;-66
2021/08/07 09:07:14;;;;;;;;;0.00;0.00;;;;;26.60;42.14;99917.41;5036884;28;45334;-68
2021/08/07 09:09:42;;;;;;;;;0.00;0.00;;;;;26.58;42.45;99919.50;5035117;28;46180;-66
2021/08/07 09:12:09;;;;;;;;;0.00;0.00;;;;;26.59;42.50;99918.47;5034973;28;45377;-66
2021/08/07 09:14:37;;;;;;;;;2.00;0.00;;;;;26.59;42.45;99919.31;5035155;28;45381;-66
2021/08/07 09:17:05;;;;;;;;;0.00;0.00;;;;;26.59;42.60;99915.81;5034337;28;47848;-66
2021/08/07 09:19:39;;;;;;;;;0.00;0.00;;;;;26.60;42.57;99917.41;5035787;28;45544;-67
2021/08/07 09:22:05;;;;;;;;;0.00;0.00;;;;;26.60;42.63;99915.56;5035349;28;45440;-66
2021/08/07 09:24:30;;;;;;;;;1.00;0.00;;;;;26.56;42.43;99914.44;5033312;28;45366;-66
2021/08/07 09:27:04;;;;;;;;;1.00;0.00;;;;;26.59;42.58;99919.31;5033552;28;45451;-66
2021/08/07 09:29:38;;;;;;;;;1.00;1.00;;;;;26.59;42.51;99916.63;5034782;28;46115;-66
2021/08/07 09:32:04;;;;;;;;;0.00;0.00;;;;;26.59;42.55;99907.81;5034899;28;45433;-67
2021/08/07 09:34:29;;;;;;;;;2.00;0.00;;;;;26.59;42.74;99905.97;5035742;28;45415;-66
2021/08/07 09:36:57;;;;;;;;;1.00;1.00;;;;;26.59;42.36;99908.63;5035700;28;45449;-66
2021/08/07 09:39:37;;;;;;;;;0.00;0.00;;;;;26.59;42.51;99903.28;5034593;28;46125;-66
2021/08/07 09:42:03;;;;;;;;;1.00;1.00;;;;;26.60;42.31;99898.75;5034439;28;45473;-66
2021/08/07 09:44:28;;;;;;;;;1.00;1.00;;;;;26.59;42.52;99905.97;5034651;28;45483;-66
2021/08/07 09:47:07;;;;;;;;;0.33;0.00;;;;;26.60;42.51;99902.22;5034767;28;45434;-67
2021/08/07 09:49:39;;;;;;;;;0.00;0.00;;;;;26.56;42.73;99884.28;5035001;28;45461;-67
2021/08/07 09:52:05;;;;;;;;;1.33;0.00;;;;;26.60;42.48;99890.75;5034691;28;45421;-66
2021/08/07 09:54:37;;;;;;;;;0.67;0.00;;;;;26.60;42.49;99888.06;5034507;28;45350;-66
2021/08/07 09:57:02;;;;;;;;;0.00;0.00;;;;;26.61;42.25;99889.72;5033223;28;45236;-66
2021/08/07 09:59:35;;;;;;;;;0.00;0.00;;;;;26.56;42.42;99870.94;5034026;28;46254;-69
2021/08/07 10:02:22;;;;;;;;;1.00;1.00;;;;;26.61;42.26;99884.38;5032615;28;45453;-66
2021/08/07 10:04:47;;;;;;;;;0.00;0.00;;;;;26.59;42.33;99881.13;5033799;28;45370;-66
2021/08/07 10:07:12;;;;;;;;;0.00;0.00;;;;;26.60;42.26;99862.22;5035619;28;45279;-66
2021/08/07 10:09:38;;;;;;;;;0.00;0.00;;;;;26.63;42.68;99867.09;5033171;28;46947;-66
2021/08/07 10:12:06;;;;;;;;;1.00;0.00;;;;;26.63;42.48;99852.94;5034274;28;45495;-66
2021/08/07 10:14:32;;;;;;;;;0.00;0.00;;;;;26.62;42.20;99854.00;5034331;28;45492;-67
2021/08/07 10:16:59;;;;;;;;;1.00;0.00;;;;;26.60;42.62;99850.72;5034052;28;45665;-67
2021/08/07 10:19:25;;;;;;;;;0.00;0.00;;;;;26.63;42.49;99844.94;5034245;28;46232;-67
2021/08/07 10:21:51;;;;;;;;;0.00;0.00;;;;;26.62;42.22;99830.78;5033343;28;45294;-67
2021/08/07 10:24:18;;;;;;;;;0.00;0.00;;;;;26.60;42.25;99822.19;5034143;28;45386;-67
2021/08/07 10:26:46;;;;;;;;;0.00;0.00;;;;;26.49;42.70;99807.06;5033949;28;45306;-67
2021/08/07 10:29:12;;;;;;;;;0.67;0.67;;;;;26.61;42.65;99823.03;5033930;28;46309;-67
2021/08/07 10:31:38;;;;;;;;;1.33;1.00;;;;;26.59;42.66;99817.94;5032379;28;45503;-67
2021/08/07 10:34:05;;;;;;;;;0.00;0.00;;;;;26.62;42.58;99821.97;5035614;28;45381;-67
2021/08/07 10:36:33;;;;;;;;;1.33;0.00;;;;;26.61;42.57;99817.69;5033644;28;45484;-67
2021/08/07 10:39:01;;;;;;;;;0.33;0.33;;;;;26.60;42.48;99802.72;5033600;28;46915;-67
2021/08/07 10:41:29;;;;;;;;;0.00;0.00;;;;;26.61;42.44;99805.16;5032058;28;45437;-67
2021/08/07 10:43:57;;;;;;;;;0.00;0.00;;;;;26.61;42.62;99799.81;5032500;28;45640;-67
2021/08/07 10:46:23;;;;;;;;;0.00;0.00;;;;;26.62;42.69;99801.44;5035323;28;45519;-67
2021/08/07 10:48:51;;;;;;;;;0.00;0.00;;;;;26.62;42.44;99784.63;5033916;28;47449;-67
2021/08/07 10:51:22;;;;;;;;;1.00;1.00;;;;;26.61;42.70;99783.81;5033528;28;45595;-67
2021/08/07 10:54:02;;;;;;;;;0.00;0.00;;;;;26.63;42.70;99786.25;5033700;28;45290;-67
2021/08/07 10:56:30;;;;;;;;;0.00;0.00;;;;;26.61;42.52;99780.34;5033381;28;45462;-67
2021/08/07 10:58:58;;;;;;;;;0.00;0.00;;;;;26.62;42.44;99769.41;5033616;28;46270;-67
2021/08/07 11:01:24;;;;;;;;;0.33;0.00;;;;;26.63;42.56;99775.56;5034785;28;45560;-67
2021/08/07 11:04:01;;;;;;;;;1.33;0.00;;;;;26.63;42.65;99780.91;5033022;28;45411;-67
2021/08/07 11:06:47;;;;;;;;;0.00;0.00;;;;;26.65;42.47;99780.69;5032798;28;45452;-67
2021/08/07 11:09:20;;;;;;;;;0.00;0.00;;;;;26.63;42.38;99789.72;5033178;28;46219;-67
2021/08/07 11:11:47;;;;;;;;;0.00;0.00;;;;;26.65;42.47;99791.34;5033335;28;45460;-67
2021/08/07 11:14:21;;;;;;;;;1.00;1.00;;;;;26.63;42.33;99787.06;5033407;28;45350;-67
2021/08/07 11:17:02;;;;;;;;;0.00;0.00;;;;;26.64;42.05;99795.88;5032729;28;45691;-67
2021/08/07 11:20:05;;;;;;;;;0.00;0.00;;;;;26.64;42.45;99801.22;5031353;28;45970;-67
2021/08/07 11:22:34;;;;;;;;;1.00;1.00;;;;;26.65;42.40;99823.38;5031007;28;45499;-67
2021/08/07 11:25:01;;;;;;;;;0.00;0.00;;;;;26.60;42.49;99794.72;5033022;28;45450;-67